createdAt,value
2018-10-12T00:00:52.207Z,15.50
2018-10-12T00:03:21.416Z,15.40
2018-10-12T00:05:49.966Z,15.40
2018-10-12T00:08:20.613Z,15.40
2018-10-12T00:10:52.435Z,15.40
2018-10-12T00:13:23.161Z,15.40
2018-10-12T00:18:20.663Z,15.30
2018-10-12T00:20:50.588Z,15.30
2018-10-12T00:23:19.192Z,15.30
2018-10-12T00:25:49.316Z,15.30
2018-10-12T00:28:19.301Z,15.30
2018-10-12T00:30:47.562Z,15.30
2018-10-12T00:33:17.440Z,15.30
2018-10-12T00:35:46.522Z,15.30
2018-10-12T00:38:14.784Z,15.30
2018-10-12T00:40:44.432Z,15.30
2018-10-12T00:43:13.599Z,15.30
2018-10-12T00:45:42.253Z,15.30
2018-10-12T00:48:11.213Z,15.20
2018-10-12T00:50:39.880Z,15.20
2018-10-12T00:53:08.555Z,15.20
2018-10-12T00:55:36.940Z,15.20
2018-10-12T00:58:05.973Z,15.20
2018-10-12T01:00:34.355Z,15.20
2018-10-12T01:03:02.705Z,15.10
2018-10-12T01:05:31.389Z,15.10
2018-10-12T01:07:59.734Z,15.10
2018-10-12T01:10:28.296Z,15.00
2018-10-12T01:12:56.697Z,15.00
2018-10-12T01:15:25.291Z,15.10
2018-10-12T01:17:53.873Z,15.10
2018-10-12T01:20:23.343Z,15.20
2018-10-12T01:22:52.326Z,15.10
2018-10-12T01:27:49.856Z,15.20
2018-10-12T01:30:18.143Z,15.30
2018-10-12T01:32:52.550Z,15.30
2018-10-12T01:35:20.798Z,15.30
2018-10-12T01:37:49.109Z,15.60
2018-10-12T01:40:18.316Z,15.60
2018-10-12T01:42:48.264Z,15.70
2018-10-12T01:45:16.845Z,15.70
2018-10-12T01:47:47.704Z,15.80
2018-10-12T01:50:16.596Z,15.80
2018-10-12T01:55:14.043Z,15.80
2018-10-12T01:57:43.212Z,15.70
2018-10-12T02:00:12.852Z,15.70
2018-10-12T02:02:42.322Z,15.70
2018-10-12T02:07:39.718Z,15.70
2018-10-12T02:12:36.599Z,15.50
2018-10-12T02:15:05.372Z,15.50
2018-10-12T02:17:34.674Z,15.40
2018-10-12T02:20:02.929Z,15.30
2018-10-12T02:22:31.221Z,15.30
2018-10-12T02:24:59.496Z,15.30
2018-10-12T02:27:28.089Z,15.20
2018-10-12T02:29:56.627Z,15.20
2018-10-12T02:32:25.160Z,15.10
2018-10-12T02:34:53.469Z,15.20
2018-10-12T02:37:21.757Z,15.10
2018-10-12T02:39:50.032Z,15.10
2018-10-12T02:42:18.541Z,15.00
2018-10-12T02:44:47.468Z,14.90
2018-10-12T02:47:16.041Z,14.90
2018-10-12T02:49:45.225Z,14.90
2018-10-12T02:52:14.621Z,14.90
2018-10-12T02:54:42.930Z,14.80
2018-10-12T02:57:11.214Z,14.80
2018-10-12T02:59:40.577Z,14.70
2018-10-12T03:02:09.494Z,14.70
2018-10-12T03:04:37.741Z,13.00
2018-10-12T03:07:06.124Z,14.70
2018-10-12T03:09:34.747Z,14.70
2018-10-12T03:12:03.317Z,14.70
2018-10-12T03:14:31.633Z,14.70
2018-10-12T03:16:59.869Z,14.80
2018-10-12T03:19:28.528Z,14.80
2018-10-12T03:21:56.833Z,14.70
2018-10-12T03:24:25.073Z,14.70
2018-10-12T03:26:54.232Z,14.50
2018-10-12T03:29:22.886Z,14.60
2018-10-12T03:31:51.302Z,14.50
2018-10-12T03:34:20.925Z,14.40
2018-10-12T03:36:49.920Z,14.40
2018-10-12T03:39:18.317Z,14.80
2018-10-12T03:41:46.603Z,14.40
2018-10-12T03:44:15.627Z,14.50
2018-10-12T03:46:44.099Z,14.40
2018-10-12T03:49:13.709Z,14.30
2018-10-12T03:51:41.982Z,14.30
2018-10-12T03:54:10.979Z,14.30
2018-10-12T03:56:39.849Z,14.30
2018-10-12T03:59:08.108Z,14.30
2018-10-12T04:01:36.625Z,14.20
2018-10-12T04:04:05.232Z,14.30
2018-10-12T04:06:33.488Z,14.20
2018-10-12T04:09:01.772Z,14.10
2018-10-12T04:11:30.164Z,14.10
2018-10-12T04:13:59.152Z,14.10
2018-10-12T04:16:28.075Z,14.00
2018-10-12T04:18:56.473Z,14.00
2018-10-12T04:21:25.119Z,14.00
2018-10-12T04:23:53.404Z,14.00
2018-10-12T04:26:21.654Z,14.10
2018-10-12T04:28:49.937Z,14.20
2018-10-12T04:31:18.208Z,14.20
2018-10-12T04:33:46.463Z,14.20
2018-10-12T04:36:15.412Z,14.20
2018-10-12T04:39:01.013Z,14.20
2018-10-12T04:41:30.835Z,14.20
2018-10-12T04:44:01.753Z,14.30
2018-10-12T04:46:40.395Z,14.30
2018-10-12T04:49:10.941Z,14.30
2018-10-12T04:51:51.591Z,14.20
2018-10-12T04:54:20.632Z,14.20
2018-10-12T04:56:49.775Z,14.30
2018-10-12T04:59:19.160Z,14.10
2018-10-12T05:01:47.518Z,14.00
2018-10-12T05:04:16.312Z,13.90
2018-10-12T05:06:44.913Z,15.10
2018-10-12T05:09:13.812Z,13.90
2018-10-12T05:11:42.106Z,13.90
2018-10-12T05:14:11.393Z,13.80
2018-10-12T05:16:40.045Z,13.80
2018-10-12T05:19:08.445Z,13.80
2018-10-12T05:21:36.696Z,13.80
2018-10-12T05:24:04.960Z,13.80
2018-10-12T05:26:33.965Z,13.80
2018-10-12T05:29:02.848Z,13.70
2018-10-12T05:31:31.200Z,13.70
2018-10-12T05:33:59.514Z,13.60
2018-10-12T05:36:27.761Z,13.60
2018-10-12T05:38:56.585Z,13.50
2018-10-12T05:41:24.915Z,13.60
2018-10-12T05:43:53.313Z,13.50
2018-10-12T05:46:21.515Z,13.60
2018-10-12T05:49:06.997Z,13.50
2018-10-12T05:51:35.384Z,13.60
2018-10-12T05:54:04.726Z,13.60
2018-10-12T05:56:35.081Z,13.70
2018-10-12T05:59:04.267Z,13.70
2018-10-12T06:01:32.887Z,13.70
2018-10-12T06:04:01.465Z,13.70
2018-10-12T06:06:29.989Z,13.70
2018-10-12T06:08:58.639Z,13.70
2018-10-12T06:11:27.307Z,13.70
2018-10-12T06:13:55.504Z,13.80
2018-10-12T06:16:24.230Z,13.90
2018-10-12T06:18:52.760Z,14.10
2018-10-12T06:21:21.824Z,14.10
2018-10-12T06:23:51.229Z,14.10
2018-10-12T06:26:19.584Z,14.20
2018-10-12T06:28:47.871Z,14.10
2018-10-12T06:31:16.146Z,14.20
2018-10-12T06:33:44.584Z,14.20
2018-10-12T06:36:13.042Z,14.30
2018-10-12T06:38:41.271Z,14.20
2018-10-12T06:41:10.234Z,14.30
2018-10-12T06:43:38.492Z,14.40
2018-10-12T06:46:07.843Z,14.50
2018-10-12T06:48:36.279Z,14.50
2018-10-12T06:51:04.552Z,14.70
2018-10-12T06:53:33.563Z,14.80
2018-10-12T06:56:01.878Z,14.90
2018-10-12T06:58:30.862Z,14.90
2018-10-12T07:00:59.166Z,14.90
2018-10-12T07:03:27.469Z,15.00
2018-10-12T07:05:55.901Z,15.00
2018-10-12T07:08:24.206Z,15.00
2018-10-12T07:10:52.545Z,15.20
2018-10-12T07:13:21.093Z,15.20
2018-10-12T07:15:49.479Z,15.30
2018-10-12T07:18:17.748Z,15.40
2018-10-12T07:20:46.514Z,15.50
2018-10-12T07:23:15.867Z,15.70
2018-10-12T07:25:44.493Z,15.80
2018-10-12T07:28:12.899Z,15.80
2018-10-12T07:30:41.257Z,15.80
2018-10-12T07:33:10.292Z,16.00
2018-10-12T07:35:38.969Z,16.00
2018-10-12T07:38:07.947Z,16.20
2018-10-12T07:40:37.162Z,16.30
2018-10-12T07:43:05.398Z,16.40
2018-10-12T07:45:33.806Z,16.50
2018-10-12T07:48:02.148Z,16.70
2018-10-12T07:50:30.395Z,16.80
2018-10-12T07:52:59.300Z,16.80
2018-10-12T07:55:27.661Z,16.90
2018-10-12T07:57:58.399Z,16.90
2018-10-12T08:00:26.713Z,17.00
2018-10-12T08:02:55.232Z,17.00
2018-10-12T08:05:24.160Z,17.20
2018-10-12T08:07:52.549Z,17.30
2018-10-12T08:10:20.915Z,17.30
2018-10-12T08:12:49.909Z,17.40
2018-10-12T08:15:18.486Z,17.40
2018-10-12T08:17:46.541Z,17.60
2018-10-12T08:20:15.932Z,17.60
2018-10-12T08:22:44.246Z,17.80
2018-10-12T08:25:12.780Z,17.90
2018-10-12T08:27:41.149Z,18.10
2018-10-12T08:30:09.478Z,18.10
2018-10-12T08:32:38.103Z,18.30
2018-10-12T08:35:06.782Z,18.30
2018-10-12T08:37:35.470Z,18.30
2018-10-12T08:40:03.764Z,18.50
2018-10-12T08:42:32.836Z,18.50
2018-10-12T08:45:01.494Z,18.60
2018-10-12T08:47:30.179Z,18.70
2018-10-12T08:49:58.558Z,18.70
2018-10-12T08:52:27.046Z,18.80
2018-10-12T08:54:55.485Z,18.90
2018-10-12T08:57:23.838Z,19.00
2018-10-12T08:59:52.118Z,19.20
2018-10-12T09:02:21.004Z,19.30
2018-10-12T09:04:49.316Z,19.40
2018-10-12T09:07:17.799Z,19.40
2018-10-12T09:09:46.280Z,19.50
2018-10-12T09:12:15.310Z,19.60
2018-10-12T09:14:44.446Z,19.80
2018-10-12T09:17:12.838Z,19.90
2018-10-12T09:19:41.240Z,20.00
2018-10-12T09:22:09.575Z,20.10
2018-10-12T09:24:38.241Z,20.20
2018-10-12T09:27:07.093Z,20.40
2018-10-12T09:29:35.622Z,20.60
2018-10-12T09:32:04.376Z,20.60
2018-10-12T09:34:32.819Z,20.70
2018-10-12T09:37:01.153Z,20.90
2018-10-12T09:39:30.105Z,21.10
2018-10-12T09:41:58.689Z,21.50
2018-10-12T09:44:26.952Z,21.40
2018-10-12T09:46:55.173Z,21.60
2018-10-12T09:49:23.784Z,21.70
2018-10-12T09:51:52.546Z,21.90
2018-10-12T09:54:21.343Z,21.90
2018-10-12T09:56:55.300Z,22.00
2018-10-12T09:59:24.181Z,22.10
2018-10-12T10:01:58.788Z,22.20
2018-10-12T10:04:31.116Z,22.40
2018-10-12T10:07:00.588Z,22.50
2018-10-12T10:09:29.048Z,22.60
2018-10-12T10:11:58.073Z,22.70
2018-10-12T10:14:27.184Z,22.80
2018-10-12T10:16:55.497Z,22.80
2018-10-12T10:19:24.207Z,23.00
2018-10-12T10:21:52.473Z,23.10
2018-10-12T10:24:20.721Z,23.20
2018-10-12T10:26:49.025Z,23.30
2018-10-12T10:29:18.422Z,23.50
2018-10-12T10:31:46.885Z,23.50
2018-10-12T10:34:15.548Z,23.50
2018-10-12T10:36:44.235Z,23.80
2018-10-12T10:39:12.905Z,23.80
2018-10-12T10:41:41.608Z,23.90
2018-10-12T10:44:10.133Z,24.10
2018-10-12T10:46:38.702Z,24.30
2018-10-12T10:51:35.983Z,24.30
2018-10-12T10:54:04.381Z,24.40
2018-10-12T10:56:32.688Z,24.60
2018-10-12T10:59:00.981Z,24.80
2018-10-12T11:01:29.220Z,24.80
2018-10-12T11:03:57.694Z,24.90
2018-10-12T11:06:25.971Z,24.90
2018-10-12T11:08:54.241Z,24.90
2018-10-12T11:11:23.073Z,25.20
2018-10-12T11:13:51.429Z,25.20
2018-10-12T11:16:19.672Z,25.10
2018-10-12T11:18:48.687Z,25.20
2018-10-12T11:21:17.764Z,25.30
2018-10-12T11:26:14.350Z,25.80
2018-10-12T11:28:42.570Z,25.90
2018-10-12T11:31:11.356Z,25.80
2018-10-12T11:33:39.638Z,25.90
2018-10-12T11:36:08.696Z,26.00
2018-10-12T11:38:36.954Z,25.90
2018-10-12T11:41:06.425Z,26.00
2018-10-12T11:43:36.280Z,26.00
2018-10-12T11:46:04.815Z,26.00
2018-10-12T11:48:33.696Z,26.10
2018-10-12T11:51:02.295Z,26.20
2018-10-12T11:53:30.583Z,26.20
2018-10-12T11:55:58.881Z,26.20
2018-10-12T11:58:27.804Z,26.30
2018-10-12T12:00:56.096Z,26.20
2018-10-12T12:03:24.288Z,26.30
2018-10-12T12:05:52.563Z,26.20
2018-10-12T12:08:21.430Z,26.20
2018-10-12T12:10:49.729Z,26.20
2018-10-12T12:13:18.593Z,26.30
2018-10-12T12:15:47.287Z,26.50
2018-10-12T12:18:16.010Z,26.70
2018-10-12T12:20:44.347Z,26.80
2018-10-12T12:23:12.592Z,26.90
2018-10-12T12:25:41.461Z,26.90
2018-10-12T12:28:09.827Z,26.90
2018-10-12T12:30:38.178Z,26.90
2018-10-12T12:33:13.477Z,27.10
2018-10-12T12:35:42.716Z,27.10
2018-10-12T12:38:10.994Z,27.20
2018-10-12T12:40:39.377Z,27.20
2018-10-12T12:43:07.772Z,27.30
2018-10-12T12:45:36.388Z,27.40
2018-10-12T12:48:04.683Z,29.40
2018-10-12T12:50:33.907Z,27.80
2018-10-12T12:53:02.773Z,28.00
2018-10-12T12:55:31.080Z,27.50
2018-10-12T12:57:59.630Z,27.80
2018-10-12T13:00:28.193Z,27.90
2018-10-12T13:02:56.719Z,28.20
2018-10-12T13:05:25.517Z,28.30
2018-10-12T13:07:54.098Z,28.50
2018-10-12T13:10:22.452Z,28.50
2018-10-12T13:12:50.809Z,28.50
2018-10-12T13:15:19.132Z,29.00
2018-10-12T13:17:47.426Z,29.00
2018-10-12T13:20:15.745Z,29.50
2018-10-12T13:22:44.925Z,30.20
2018-10-12T13:25:13.209Z,31.10
2018-10-12T13:27:42.076Z,31.80
2018-10-12T13:30:10.365Z,32.60
2018-10-12T13:32:38.838Z,33.70
2018-10-12T13:35:07.453Z,35.30
2018-10-12T13:37:36.649Z,35.40
2018-10-12T13:40:04.941Z,36.50
2018-10-12T13:42:33.509Z,36.80
2018-10-12T13:45:02.169Z,36.80
2018-10-12T13:47:31.061Z,36.70
2018-10-12T13:49:59.309Z,35.80
2018-10-12T13:52:28.437Z,35.30
2018-10-12T13:54:56.909Z,36.30
2018-10-12T13:57:28.076Z,37.10
2018-10-12T13:59:56.393Z,36.60
2018-10-12T14:02:24.977Z,36.60
2018-10-12T14:04:53.389Z,36.60
2018-10-12T14:07:21.771Z,36.20
2018-10-12T14:09:50.238Z,36.20
2018-10-12T14:12:18.521Z,36.30
2018-10-12T14:14:46.806Z,36.20
2018-10-12T14:17:15.106Z,36.40
2018-10-12T14:19:44.398Z,37.00
2018-10-12T14:22:13.407Z,37.50
2018-10-12T14:24:41.670Z,36.30
2018-10-12T14:27:10.368Z,36.70
2018-10-12T14:29:38.857Z,36.70
2018-10-12T14:32:07.528Z,36.20
2018-10-12T14:34:36.163Z,36.00
2018-10-12T14:37:05.188Z,36.00
2018-10-12T14:39:33.742Z,36.20
2018-10-12T14:42:02.326Z,36.20
2018-10-12T14:44:30.562Z,36.20
2018-10-12T14:46:58.833Z,35.30
2018-10-12T14:49:27.054Z,34.90
2018-10-12T14:51:55.772Z,34.30
2018-10-12T14:54:24.050Z,34.30
2018-10-12T14:56:52.716Z,33.80
2018-10-12T14:59:21.793Z,33.00
2018-10-12T15:01:51.165Z,32.30
2018-10-12T15:06:47.585Z,32.40
2018-10-12T15:09:15.853Z,32.40
2018-10-12T15:11:44.288Z,32.20
2018-10-12T15:14:12.822Z,32.10
2018-10-12T15:19:09.463Z,32.30
2018-10-12T15:21:37.696Z,32.30
2018-10-12T15:24:06.522Z,32.30
2018-10-12T15:26:35.068Z,32.10
2018-10-12T15:29:04.509Z,31.80
2018-10-12T15:31:32.896Z,31.50
2018-10-12T15:34:01.086Z,31.30
2018-10-12T15:36:29.588Z,30.60
2018-10-12T15:38:58.154Z,30.50
2018-10-12T15:41:26.407Z,30.30
2018-10-12T15:43:54.984Z,29.60
2018-10-12T15:46:23.518Z,29.10
2018-10-12T15:48:51.846Z,28.60
2018-10-12T15:51:20.302Z,28.00
2018-10-12T15:53:48.548Z,27.10
2018-10-12T15:56:16.903Z,27.10
2018-10-12T15:58:45.099Z,26.70
2018-10-12T16:01:13.694Z,26.50
2018-10-12T16:03:42.397Z,26.20
2018-10-12T16:06:10.749Z,26.00
2018-10-12T16:08:39.325Z,25.80
2018-10-12T16:11:07.937Z,25.60
2018-10-12T16:13:36.481Z,25.40
2018-10-12T16:16:05.002Z,25.00
2018-10-12T16:18:33.247Z,25.00
2018-10-12T16:21:02.099Z,24.80
2018-10-12T16:23:30.405Z,24.50
2018-10-12T16:26:13.413Z,24.30
2018-10-12T16:28:41.780Z,24.10
2018-10-12T16:31:11.286Z,24.00
2018-10-12T16:33:39.530Z,23.80
2018-10-12T16:36:08.230Z,23.70
2018-10-12T16:38:36.937Z,23.50
2018-10-12T16:41:05.314Z,23.40
2018-10-12T16:43:33.541Z,23.30
2018-10-12T16:46:01.830Z,23.00
2018-10-12T16:48:30.885Z,22.90
2018-10-12T16:50:59.331Z,22.70
2018-10-12T16:53:27.553Z,22.50
2018-10-12T16:55:55.860Z,22.30
2018-10-12T16:58:24.276Z,22.30
2018-10-12T17:00:52.495Z,22.20
2018-10-12T17:03:20.748Z,22.00
2018-10-12T17:05:49.074Z,21.90
2018-10-12T17:08:18.328Z,21.80
2018-10-12T17:10:46.913Z,21.70
2018-10-12T17:13:15.135Z,21.60
2018-10-12T17:15:43.667Z,21.50
2018-10-12T17:18:12.115Z,21.40
2018-10-12T17:20:40.373Z,21.40
2018-10-12T17:23:08.659Z,21.10
2018-10-12T17:25:37.234Z,21.10
2018-10-12T17:28:05.569Z,21.00
2018-10-12T17:30:33.781Z,20.90
2018-10-12T17:35:30.606Z,20.70
2018-10-12T17:37:59.567Z,20.60
2018-10-12T17:40:27.814Z,21.00
2018-10-12T17:42:56.091Z,20.40
2018-10-12T17:45:24.267Z,20.40
2018-10-12T17:47:52.512Z,20.30
2018-10-12T17:50:21.134Z,20.20
2018-10-12T17:52:49.356Z,20.20
2018-10-12T17:55:18.298Z,20.20
2018-10-12T17:57:46.507Z,20.10
2018-10-12T18:00:15.093Z,20.00
2018-10-12T18:02:43.244Z,20.00
2018-10-12T18:05:11.759Z,19.90
2018-10-12T18:07:40.013Z,19.90
2018-10-12T18:10:09.898Z,19.70
2018-10-12T18:12:38.496Z,19.70
2018-10-12T18:15:10.700Z,19.80
2018-10-12T18:17:39.275Z,19.70
2018-10-12T18:20:08.926Z,19.70
2018-10-12T18:22:37.501Z,19.60
2018-10-12T18:25:06.442Z,19.60
2018-10-12T18:27:34.949Z,19.60
2018-10-12T18:30:03.453Z,19.60
2018-10-12T18:32:31.982Z,19.50
2018-10-12T18:35:00.290Z,19.50
2018-10-12T18:37:28.712Z,19.50
2018-10-12T18:39:56.952Z,19.50
2018-10-12T18:42:25.166Z,19.40
2018-10-12T18:44:53.394Z,19.30
2018-10-12T18:47:22.172Z,19.30
2018-10-12T18:49:50.436Z,19.20
2018-10-12T18:52:18.976Z,19.20
2018-10-12T18:54:47.784Z,19.10
2018-10-12T18:57:16.419Z,19.10
2018-10-12T18:59:44.901Z,19.00
2018-10-12T19:02:13.120Z,18.90
2018-10-12T19:04:41.645Z,18.90
2018-10-12T19:07:09.938Z,18.90
2018-10-12T19:09:38.538Z,18.80
2018-10-12T19:12:07.025Z,18.70
2018-10-12T19:14:35.238Z,18.60
2018-10-12T19:17:04.101Z,18.50
2018-10-12T19:19:32.791Z,18.50
2018-10-12T19:22:01.261Z,18.50
2018-10-12T19:24:29.859Z,18.50
2018-10-12T19:26:58.373Z,18.50
2018-10-12T19:29:26.604Z,18.60
2018-10-12T19:31:54.888Z,18.30
2018-10-12T19:34:23.168Z,18.20
2018-10-12T19:36:51.709Z,18.20
2018-10-12T19:39:20.025Z,18.20
2018-10-12T19:41:48.460Z,18.20
2018-10-12T19:46:45.237Z,18.20
2018-10-12T19:49:13.593Z,18.20
2018-10-12T19:51:41.996Z,18.00
2018-10-12T19:54:10.381Z,18.00
2018-10-12T19:56:38.996Z,17.80
2018-10-12T19:59:07.309Z,17.80
2018-10-12T20:01:35.519Z,17.70
2018-10-12T20:04:03.918Z,17.70
2018-10-12T20:06:32.208Z,17.70
2018-10-12T20:09:00.479Z,17.60
2018-10-12T20:11:28.686Z,17.60
2018-10-12T20:13:56.973Z,17.60
2018-10-12T20:16:25.315Z,17.50
2018-10-12T20:18:53.867Z,17.50
2018-10-12T20:21:22.142Z,17.40
2018-10-12T20:23:50.444Z,17.40
2018-10-12T20:26:19.332Z,17.30
2018-10-12T20:28:48.265Z,17.40
2018-10-12T20:33:45.209Z,17.40
2018-10-12T20:36:13.612Z,17.40
2018-10-12T20:41:10.004Z,17.40
2018-10-12T20:43:38.366Z,17.20
2018-10-12T20:46:06.812Z,17.10
2018-10-12T20:48:35.179Z,17.00
2018-10-12T20:51:03.626Z,17.00
2018-10-12T20:53:32.516Z,17.00
2018-10-12T20:56:01.002Z,16.90
2018-10-12T20:58:29.238Z,16.90
2018-10-12T21:00:57.790Z,16.80
2018-10-12T21:03:26.515Z,16.80
2018-10-12T21:05:54.728Z,16.80
2018-10-12T21:08:23.122Z,16.80
2018-10-12T21:10:51.460Z,16.90
2018-10-12T21:13:19.691Z,16.80
2018-10-12T21:15:48.071Z,16.80
2018-10-12T21:18:16.348Z,16.70
2018-10-12T21:20:44.600Z,16.60
2018-10-12T21:23:13.947Z,16.60
2018-10-12T21:25:42.555Z,16.60
2018-10-12T21:28:10.862Z,16.50
2018-10-12T21:30:39.189Z,16.60
2018-10-12T21:33:08.170Z,16.50
2018-10-12T21:35:37.073Z,16.50
2018-10-12T21:38:05.804Z,16.50
2018-10-12T21:40:34.401Z,16.50
2018-10-12T21:43:02.693Z,16.50
2018-10-12T21:45:31.012Z,16.50
2018-10-12T21:47:59.312Z,16.40
2018-10-12T21:50:27.740Z,16.30
2018-10-12T21:52:57.091Z,16.30
2018-10-12T21:55:25.450Z,16.30
2018-10-12T21:57:53.793Z,16.20
2018-10-12T22:00:24.072Z,16.10
2018-10-12T22:02:52.588Z,16.10
2018-10-12T22:05:20.916Z,16.00
2018-10-12T22:07:49.317Z,16.00
2018-10-12T22:10:17.614Z,16.00
2018-10-12T22:12:46.477Z,16.00
2018-10-12T22:15:15.106Z,15.90
2018-10-12T22:17:44.022Z,15.90
2018-10-12T22:20:12.295Z,15.80
2018-10-12T22:22:40.795Z,15.80
2018-10-12T22:25:09.847Z,15.80
2018-10-12T22:27:38.281Z,15.80
2018-10-12T22:30:07.548Z,15.90
2018-10-12T22:32:35.810Z,15.80
2018-10-12T22:35:04.866Z,15.80
2018-10-12T22:37:33.841Z,15.80
2018-10-12T22:40:02.938Z,15.80
2018-10-12T22:42:31.211Z,15.80
2018-10-12T22:44:59.539Z,15.80
2018-10-12T22:47:28.786Z,15.80
2018-10-12T22:49:57.068Z,15.70
2018-10-12T22:52:27.822Z,15.80
2018-10-12T22:54:56.205Z,15.60
2018-10-12T22:57:24.534Z,15.60
2018-10-12T22:59:52.902Z,15.60
2018-10-12T23:02:21.368Z,15.50
2018-10-12T23:04:50.005Z,15.50
2018-10-12T23:07:18.407Z,15.50
2018-10-12T23:09:46.658Z,15.40
2018-10-12T23:12:15.064Z,15.30
2018-10-12T23:14:43.745Z,15.30
2018-10-12T23:17:12.668Z,15.30
2018-10-12T23:19:40.916Z,15.30
2018-10-12T23:22:09.189Z,15.20
2018-10-12T23:24:37.729Z,15.20
2018-10-12T23:27:06.621Z,15.20
2018-10-12T23:29:35.397Z,15.10
2018-10-12T23:32:03.639Z,15.10
2018-10-12T23:34:33.077Z,15.00
2018-10-12T23:37:01.338Z,15.10
2018-10-12T23:39:31.169Z,15.00
2018-10-12T23:41:59.719Z,15.00
2018-10-12T23:44:28.078Z,14.90
2018-10-12T23:46:56.786Z,14.80
2018-10-12T23:49:25.674Z,14.90
2018-10-12T23:51:53.918Z,15.00
2018-10-12T23:54:22.126Z,15.00
2018-10-12T23:56:50.334Z,15.10
2018-10-12T23:59:18.975Z,15.00
